< < Back
Terminal Aerodrome Forecast


Current Version              Previous Versions:   1  2  3  4  5  6  7  8  9  

Terminal Aerodrome Forecast

979
FTUS42 KFFC 291900 AAA
TAFCSG
TAF AMD
KCSG 291951Z 2920/3018 32008G16KT P6SM SCT050
     FM300000 32005KT P6SM SKC
     FM301300 04006KT P6SM FEW030=

Latest METAR

919
SAUS70 KWBC 300300
MTRCSG
METAR KCSG 300251Z AUTO 36003KT 10SM CLR 24/14 A3001 RMK AO2 SLP156
T02390144 53012


USA.gov is the U.S. government's official web portal to all federal, state and local government web resources and services.